sensor_id;sensor_type;location;lat;lon;timestamp;P1;durP1;ratioP1;P2;durP2;ratioP2
20751;SDS011;10536;51.582;5.016;2022-08-20T00:04:15;16.90;;;12.05;;
20751;SDS011;10536;51.582;5.016;2022-08-20T00:09:16;16.35;;;12.75;;
20751;SDS011;10536;51.582;5.016;2022-08-20T00:14:16;17.55;;;13.00;;
20751;SDS011;10536;51.582;5.016;2022-08-20T00:19:17;30.43;;;15.60;;
20751;SDS011;10536;51.582;5.016;2022-08-20T00:24:17;21.73;;;13.90;;
20751;SDS011;10536;51.582;5.016;2022-08-20T00:29:18;27.08;;;15.52;;
20751;SDS011;10536;51.582;5.016;2022-08-20T00:34:19;42.15;;;18.73;;
20751;SDS011;10536;51.582;5.016;2022-08-20T00:39:20;28.30;;;17.83;;
20751;SDS011;10536;51.582;5.016;2022-08-20T00:44:21;26.10;;;19.05;;
20751;SDS011;10536;51.582;5.016;2022-08-20T00:49:23;33.97;;;21.52;;
20751;SDS011;10536;51.582;5.016;2022-08-20T00:59:41;40.08;;;23.02;;
20751;SDS011;10536;51.582;5.016;2022-08-20T01:04:43;45.35;;;24.27;;
20751;SDS011;10536;51.582;5.016;2022-08-20T01:10:11;36.55;;;22.77;;
20751;SDS011;10536;51.582;5.016;2022-08-20T01:15:17;58.03;;;25.73;;
20751;SDS011;10536;51.582;5.016;2022-08-20T01:20:26;36.17;;;22.25;;
20751;SDS011;10536;51.582;5.016;2022-08-20T01:25:41;39.38;;;21.83;;
20751;SDS011;10536;51.582;5.016;2022-08-20T01:30:45;56.08;;;24.92;;
20751;SDS011;10536;51.582;5.016;2022-08-20T01:35:46;62.03;;;25.13;;
20751;SDS011;10536;51.582;5.016;2022-08-20T01:45:56;81.47;;;28.90;;
20751;SDS011;10536;51.582;5.016;2022-08-20T01:51:06;72.72;;;28.65;;
20751;SDS011;10536;51.582;5.016;2022-08-20T01:56:11;66.88;;;27.88;;
20751;SDS011;10536;51.582;5.016;2022-08-20T02:06:48;80.40;;;28.33;;
20751;SDS011;10536;51.582;5.016;2022-08-20T02:11:51;69.47;;;26.02;;
20751;SDS011;10536;51.582;5.016;2022-08-20T02:16:52;63.13;;;24.48;;
20751;SDS011;10536;51.582;5.016;2022-08-20T02:21:55;64.05;;;25.17;;
20751;SDS011;10536;51.582;5.016;2022-08-20T02:31:58;59.38;;;26.33;;
20751;SDS011;10536;51.582;5.016;2022-08-20T02:36:59;52.05;;;25.83;;
20751;SDS011;10536;51.582;5.016;2022-08-20T02:42:00;57.85;;;27.13;;
20751;SDS011;10536;51.582;5.016;2022-08-20T02:47:04;55.38;;;27.60;;
20751;SDS011;10536;51.582;5.016;2022-08-20T02:52:06;63.45;;;27.58;;
20751;SDS011;10536;51.582;5.016;2022-08-20T02:57:11;54.80;;;25.23;;
20751;SDS011;10536;51.582;5.016;2022-08-20T03:02:13;62.90;;;28.85;;
20751;SDS011;10536;51.582;5.016;2022-08-20T03:07:14;66.15;;;28.73;;
20751;SDS011;10536;51.582;5.016;2022-08-20T03:12:15;64.45;;;26.95;;
20751;SDS011;10536;51.582;5.016;2022-08-20T03:17:15;65.47;;;25.13;;
20751;SDS011;10536;51.582;5.016;2022-08-20T03:22:15;52.63;;;23.48;;
20751;SDS011;10536;51.582;5.016;2022-08-20T03:27:16;53.40;;;23.30;;
20751;SDS011;10536;51.582;5.016;2022-08-20T03:32:16;52.33;;;20.73;;
20751;SDS011;10536;51.582;5.016;2022-08-20T03:37:17;49.53;;;22.17;;
20751;SDS011;10536;51.582;5.016;2022-08-20T03:42:17;53.10;;;23.53;;
20751;SDS011;10536;51.582;5.016;2022-08-20T03:47:18;57.37;;;23.23;;
20751;SDS011;10536;51.582;5.016;2022-08-20T03:52:19;60.25;;;24.73;;
20751;SDS011;10536;51.582;5.016;2022-08-20T03:57:19;64.43;;;24.53;;
20751;SDS011;10536;51.582;5.016;2022-08-20T04:02:20;56.63;;;26.07;;
20751;SDS011;10536;51.582;5.016;2022-08-20T04:07:21;60.85;;;25.88;;
20751;SDS011;10536;51.582;5.016;2022-08-20T04:17:25;64.65;;;25.50;;
20751;SDS011;10536;51.582;5.016;2022-08-20T04:22:26;65.38;;;26.65;;
20751;SDS011;10536;51.582;5.016;2022-08-20T04:27:26;68.43;;;29.57;;
20751;SDS011;10536;51.582;5.016;2022-08-20T04:32:27;72.22;;;28.63;;
20751;SDS011;10536;51.582;5.016;2022-08-20T04:37:27;57.57;;;26.83;;
20751;SDS011;10536;51.582;5.016;2022-08-20T04:42:27;53.87;;;26.13;;
20751;SDS011;10536;51.582;5.016;2022-08-20T04:47:28;59.57;;;27.23;;
20751;SDS011;10536;51.582;5.016;2022-08-20T04:52:28;60.30;;;27.38;;
20751;SDS011;10536;51.582;5.016;2022-08-20T04:57:32;61.72;;;27.30;;
20751;SDS011;10536;51.582;5.016;2022-08-20T05:02:35;53.88;;;27.45;;
20751;SDS011;10536;51.582;5.016;2022-08-20T05:07:38;65.63;;;29.10;;
20751;SDS011;10536;51.582;5.016;2022-08-20T05:12:44;65.38;;;27.67;;
20751;SDS011;10536;51.582;5.016;2022-08-20T05:17:45;63.60;;;28.30;;
20751;SDS011;10536;51.582;5.016;2022-08-20T05:22:46;63.15;;;29.15;;
20751;SDS011;10536;51.582;5.016;2022-08-20T05:27:46;63.60;;;30.73;;
20751;SDS011;10536;51.582;5.016;2022-08-20T05:32:47;73.25;;;33.00;;
20751;SDS011;10536;51.582;5.016;2022-08-20T05:37:48;66.25;;;32.33;;
20751;SDS011;10536;51.582;5.016;2022-08-20T05:42:48;74.07;;;34.35;;
20751;SDS011;10536;51.582;5.016;2022-08-20T05:47:50;101.90;;;37.70;;
20751;SDS011;10536;51.582;5.016;2022-08-20T05:52:50;92.68;;;36.70;;
20751;SDS011;10536;51.582;5.016;2022-08-20T05:57:55;81.28;;;37.13;;
20751;SDS011;10536;51.582;5.016;2022-08-20T06:02:57;78.15;;;33.75;;
20751;SDS011;10536;51.582;5.016;2022-08-20T06:08:16;94.75;;;38.08;;
20751;SDS011;10536;51.582;5.016;2022-08-20T06:13:17;78.53;;;36.30;;
20751;SDS011;10536;51.582;5.016;2022-08-20T06:18:17;67.68;;;35.22;;
20751;SDS011;10536;51.582;5.016;2022-08-20T06:23:18;63.45;;;33.00;;
20751;SDS011;10536;51.582;5.016;2022-08-20T06:28:18;64.93;;;33.22;;
20751;SDS011;10536;51.582;5.016;2022-08-20T06:33:19;59.72;;;33.92;;
20751;SDS011;10536;51.582;5.016;2022-08-20T06:38:20;55.67;;;32.28;;
20751;SDS011;10536;51.582;5.016;2022-08-20T06:43:20;57.65;;;32.25;;
20751;SDS011;10536;51.582;5.016;2022-08-20T06:48:21;65.72;;;33.85;;
20751;SDS011;10536;51.582;5.016;2022-08-20T06:53:21;64.78;;;32.75;;
20751;SDS011;10536;51.582;5.016;2022-08-20T06:58:22;59.75;;;33.35;;
20751;SDS011;10536;51.582;5.016;2022-08-20T07:03:22;60.53;;;32.83;;
20751;SDS011;10536;51.582;5.016;2022-08-20T07:08:24;50.05;;;29.60;;
20751;SDS011;10536;51.582;5.016;2022-08-20T07:13:24;51.43;;;29.93;;
20751;SDS011;10536;51.582;5.016;2022-08-20T07:18:25;64.07;;;30.40;;
20751;SDS011;10536;51.582;5.016;2022-08-20T07:23:26;46.58;;;30.35;;
20751;SDS011;10536;51.582;5.016;2022-08-20T07:28:26;44.47;;;25.55;;
20751;SDS011;10536;51.582;5.016;2022-08-20T07:33:28;37.90;;;23.10;;
20751;SDS011;10536;51.582;5.016;2022-08-20T07:38:30;37.95;;;24.20;;
20751;SDS011;10536;51.582;5.016;2022-08-20T07:43:31;35.45;;;20.60;;
20751;SDS011;10536;51.582;5.016;2022-08-20T07:48:31;29.52;;;20.08;;
20751;SDS011;10536;51.582;5.016;2022-08-20T07:53:33;21.63;;;14.75;;
20751;SDS011;10536;51.582;5.016;2022-08-20T07:58:37;22.63;;;13.93;;
20751;SDS011;10536;51.582;5.016;2022-08-20T08:03:40;27.45;;;13.18;;
20751;SDS011;10536;51.582;5.016;2022-08-20T08:08:41;19.92;;;13.00;;
20751;SDS011;10536;51.582;5.016;2022-08-20T08:13:42;22.42;;;12.70;;
20751;SDS011;10536;51.582;5.016;2022-08-20T08:18:48;16.27;;;10.23;;
20751;SDS011;10536;51.582;5.016;2022-08-20T08:23:55;18.42;;;11.35;;
20751;SDS011;10536;51.582;5.016;2022-08-20T08:28:55;19.20;;;10.07;;
20751;SDS011;10536;51.582;5.016;2022-08-20T08:33:57;14.70;;;7.95;;
20751;SDS011;10536;51.582;5.016;2022-08-20T08:38:57;13.63;;;6.90;;
20751;SDS011;10536;51.582;5.016;2022-08-20T08:44:07;13.43;;;7.73;;
20751;SDS011;10536;51.582;5.016;2022-08-20T08:49:21;12.90;;;7.43;;
20751;SDS011;10536;51.582;5.016;2022-08-20T08:54:26;9.95;;;5.60;;
20751;SDS011;10536;51.582;5.016;2022-08-20T08:59:30;14.52;;;5.80;;
20751;SDS011;10536;51.582;5.016;2022-08-20T09:04:37;11.00;;;5.32;;
20751;SDS011;10536;51.582;5.016;2022-08-20T09:09:40;9.02;;;3.53;;
20751;SDS011;10536;51.582;5.016;2022-08-20T09:19:46;9.63;;;3.22;;
20751;SDS011;10536;51.582;5.016;2022-08-20T09:24:46;12.23;;;3.55;;
20751;SDS011;10536;51.582;5.016;2022-08-20T09:29:48;9.85;;;3.17;;
20751;SDS011;10536;51.582;5.016;2022-08-20T09:34:50;6.53;;;2.40;;
20751;SDS011;10536;51.582;5.016;2022-08-20T09:39:59;12.98;;;2.95;;
20751;SDS011;10536;51.582;5.016;2022-08-20T09:45:00;10.32;;;2.42;;
20751;SDS011;10536;51.582;5.016;2022-08-20T09:50:01;11.73;;;2.53;;
20751;SDS011;10536;51.582;5.016;2022-08-20T09:55:04;12.65;;;2.58;;
20751;SDS011;10536;51.582;5.016;2022-08-20T10:00:27;9.77;;;2.47;;
20751;SDS011;10536;51.582;5.016;2022-08-20T10:05:28;10.48;;;2.17;;
20751;SDS011;10536;51.582;5.016;2022-08-20T10:10:28;7.85;;;2.70;;
20751;SDS011;10536;51.582;5.016;2022-08-20T10:15:39;6.23;;;1.90;;
20751;SDS011;10536;51.582;5.016;2022-08-20T10:21:38;10.88;;;2.15;;
20751;SDS011;10536;51.582;5.016;2022-08-20T10:26:38;5.73;;;2.00;;
20751;SDS011;10536;51.582;5.016;2022-08-20T10:31:39;9.13;;;2.10;;
20751;SDS011;10536;51.582;5.016;2022-08-20T10:36:40;12.45;;;3.03;;
20751;SDS011;10536;51.582;5.016;2022-08-20T10:41:41;9.38;;;2.35;;
20751;SDS011;10536;51.582;5.016;2022-08-20T10:46:42;8.18;;;2.13;;
20751;SDS011;10536;51.582;5.016;2022-08-20T10:51:45;9.77;;;2.10;;
20751;SDS011;10536;51.582;5.016;2022-08-20T10:56:46;11.73;;;2.15;;
20751;SDS011;10536;51.582;5.016;2022-08-20T11:01:46;8.60;;;2.20;;
20751;SDS011;10536;51.582;5.016;2022-08-20T11:06:46;8.97;;;2.50;;
20751;SDS011;10536;51.582;5.016;2022-08-20T11:11:47;8.10;;;2.03;;
20751;SDS011;10536;51.582;5.016;2022-08-20T11:16:47;9.95;;;1.90;;
20751;SDS011;10536;51.582;5.016;2022-08-20T11:21:48;10.93;;;2.20;;
20751;SDS011;10536;51.582;5.016;2022-08-20T11:26:48;8.37;;;2.40;;
20751;SDS011;10536;51.582;5.016;2022-08-20T11:31:52;10.40;;;2.75;;
20751;SDS011;10536;51.582;5.016;2022-08-20T11:36:52;11.23;;;2.22;;
20751;SDS011;10536;51.582;5.016;2022-08-20T11:41:53;10.25;;;2.03;;
20751;SDS011;10536;51.582;5.016;2022-08-20T11:46:54;8.00;;;2.50;;
20751;SDS011;10536;51.582;5.016;2022-08-20T11:51:59;6.13;;;1.90;;
20751;SDS011;10536;51.582;5.016;2022-08-20T11:57:00;5.22;;;2.15;;
20751;SDS011;10536;51.582;5.016;2022-08-20T12:02:01;5.13;;;1.55;;
20751;SDS011;10536;51.582;5.016;2022-08-20T12:07:12;7.00;;;2.08;;
20751;SDS011;10536;51.582;5.016;2022-08-20T12:12:14;20.10;;;2.47;;
20751;SDS011;10536;51.582;5.016;2022-08-20T12:17:18;8.75;;;1.88;;
20751;SDS011;10536;51.582;5.016;2022-08-20T12:22:23;10.77;;;2.28;;
20751;SDS011;10536;51.582;5.016;2022-08-20T12:27:28;11.02;;;2.40;;
20751;SDS011;10536;51.582;5.016;2022-08-20T12:32:30;9.70;;;2.60;;
20751;SDS011;10536;51.582;5.016;2022-08-20T12:37:31;6.82;;;2.13;;
20751;SDS011;10536;51.582;5.016;2022-08-20T12:42:32;9.40;;;2.22;;
20751;SDS011;10536;51.582;5.016;2022-08-20T12:47:36;14.80;;;2.75;;
20751;SDS011;10536;51.582;5.016;2022-08-20T12:52:48;9.38;;;2.28;;
20751;SDS011;10536;51.582;5.016;2022-08-20T12:57:50;12.85;;;2.30;;
20751;SDS011;10536;51.582;5.016;2022-08-20T13:02:57;9.85;;;2.17;;
20751;SDS011;10536;51.582;5.016;2022-08-20T13:08:09;9.10;;;2.17;;
20751;SDS011;10536;51.582;5.016;2022-08-20T13:13:12;7.43;;;2.28;;
20751;SDS011;10536;51.582;5.016;2022-08-20T13:18:14;11.53;;;2.33;;
20751;SDS011;10536;51.582;5.016;2022-08-20T13:23:15;10.27;;;2.33;;
20751;SDS011;10536;51.582;5.016;2022-08-20T13:28:16;5.95;;;2.25;;
20751;SDS011;10536;51.582;5.016;2022-08-20T13:33:16;11.38;;;2.50;;
20751;SDS011;10536;51.582;5.016;2022-08-20T13:38:17;8.63;;;2.40;;
20751;SDS011;10536;51.582;5.016;2022-08-20T13:43:18;8.40;;;2.10;;
20751;SDS011;10536;51.582;5.016;2022-08-20T13:48:18;8.32;;;2.28;;
20751;SDS011;10536;51.582;5.016;2022-08-20T13:53:18;6.03;;;2.10;;
20751;SDS011;10536;51.582;5.016;2022-08-20T13:58:20;7.07;;;1.95;;
20751;SDS011;10536;51.582;5.016;2022-08-20T14:03:21;6.97;;;2.40;;
20751;SDS011;10536;51.582;5.016;2022-08-20T14:08:22;7.53;;;1.97;;
20751;SDS011;10536;51.582;5.016;2022-08-20T14:13:24;8.32;;;2.30;;
20751;SDS011;10536;51.582;5.016;2022-08-20T14:18:25;5.80;;;1.85;;
20751;SDS011;10536;51.582;5.016;2022-08-20T14:23:26;5.97;;;2.30;;
20751;SDS011;10536;51.582;5.016;2022-08-20T14:28:26;7.33;;;2.17;;
20751;SDS011;10536;51.582;5.016;2022-08-20T14:33:26;7.03;;;2.13;;
20751;SDS011;10536;51.582;5.016;2022-08-20T14:38:27;7.57;;;2.20;;
20751;SDS011;10536;51.582;5.016;2022-08-20T14:43:27;10.05;;;2.25;;
20751;SDS011;10536;51.582;5.016;2022-08-20T14:48:28;7.27;;;2.10;;
20751;SDS011;10536;51.582;5.016;2022-08-20T14:53:28;7.50;;;2.05;;
20751;SDS011;10536;51.582;5.016;2022-08-20T14:58:31;5.53;;;2.23;;
20751;SDS011;10536;51.582;5.016;2022-08-20T15:03:32;6.00;;;2.10;;
20751;SDS011;10536;51.582;5.016;2022-08-20T15:08:35;6.55;;;2.03;;
20751;SDS011;10536;51.582;5.016;2022-08-20T15:13:36;5.75;;;2.20;;
20751;SDS011;10536;51.582;5.016;2022-08-20T15:18:39;7.05;;;1.83;;
20751;SDS011;10536;51.582;5.016;2022-08-20T15:23:45;8.85;;;1.90;;
20751;SDS011;10536;51.582;5.016;2022-08-20T15:28:45;5.90;;;1.60;;
20751;SDS011;10536;51.582;5.016;2022-08-20T15:33:46;7.57;;;1.58;;
20751;SDS011;10536;51.582;5.016;2022-08-20T15:38:47;7.97;;;2.20;;
20751;SDS011;10536;51.582;5.016;2022-08-20T15:43:50;9.25;;;2.30;;
20751;SDS011;10536;51.582;5.016;2022-08-20T15:48:50;11.17;;;2.43;;
20751;SDS011;10536;51.582;5.016;2022-08-20T15:53:56;28.08;;;3.88;;
20751;SDS011;10536;51.582;5.016;2022-08-20T16:06:06;6.50;;;2.45;;
20751;SDS011;10536;51.582;5.016;2022-08-20T16:11:16;3.70;;;1.77;;
20751;SDS011;10536;51.582;5.016;2022-08-20T16:21:42;4.28;;;1.58;;
20751;SDS011;10536;51.582;5.016;2022-08-20T16:32:02;12.95;;;1.75;;
20751;SDS011;10536;51.582;5.016;2022-08-20T16:37:44;2.85;;;1.42;;
20751;SDS011;10536;51.582;5.016;2022-08-20T16:42:46;4.95;;;1.60;;
20751;SDS011;10536;51.582;5.016;2022-08-20T16:47:51;3.25;;;1.33;;
20751;SDS011;10536;51.582;5.016;2022-08-20T16:52:56;3.88;;;1.25;;
20751;SDS011;10536;51.582;5.016;2022-08-20T16:57:56;3.65;;;1.50;;
20751;SDS011;10536;51.582;5.016;2022-08-20T17:02:58;6.95;;;2.70;;
20751;SDS011;10536;51.582;5.016;2022-08-20T17:08:05;67.00;;;10.82;;
20751;SDS011;10536;51.582;5.016;2022-08-20T17:13:19;10.82;;;2.25;;
20751;SDS011;10536;51.582;5.016;2022-08-20T17:18:23;3.75;;;1.63;;
20751;SDS011;10536;51.582;5.016;2022-08-20T17:23:30;6.07;;;1.80;;
20751;SDS011;10536;51.582;5.016;2022-08-20T17:28:35;7.78;;;1.45;;
20751;SDS011;10536;51.582;5.016;2022-08-20T17:33:36;4.30;;;1.83;;
20751;SDS011;10536;51.582;5.016;2022-08-20T17:38:39;6.07;;;1.63;;
20751;SDS011;10536;51.582;5.016;2022-08-20T17:44:06;5.35;;;1.48;;
20751;SDS011;10536;51.582;5.016;2022-08-20T17:49:09;3.60;;;1.85;;
20751;SDS011;10536;51.582;5.016;2022-08-20T17:54:14;7.40;;;1.45;;
20751;SDS011;10536;51.582;5.016;2022-08-20T17:59:59;7.15;;;2.40;;
20751;SDS011;10536;51.582;5.016;2022-08-20T18:05:17;3.55;;;1.90;;
20751;SDS011;10536;51.582;5.016;2022-08-20T18:10:20;5.13;;;1.40;;
20751;SDS011;10536;51.582;5.016;2022-08-20T18:26:03;3.80;;;2.25;;
20751;SDS011;10536;51.582;5.016;2022-08-20T18:31:21;5.68;;;2.35;;
20751;SDS011;10536;51.582;5.016;2022-08-20T18:36:26;5.20;;;2.08;;
20751;SDS011;10536;51.582;5.016;2022-08-20T18:41:29;8.68;;;2.17;;
20751;SDS011;10536;51.582;5.016;2022-08-20T18:46:34;5.10;;;2.47;;
20751;SDS011;10536;51.582;5.016;2022-08-20T18:51:40;7.10;;;1.80;;
20751;SDS011;10536;51.582;5.016;2022-08-20T18:56:49;5.03;;;1.90;;
20751;SDS011;10536;51.582;5.016;2022-08-20T19:02:25;4.35;;;1.50;;
20751;SDS011;10536;51.582;5.016;2022-08-20T19:07:34;2.95;;;1.95;;
20751;SDS011;10536;51.582;5.016;2022-08-20T19:18:10;4.90;;;2.40;;
20751;SDS011;10536;51.582;5.016;2022-08-20T19:23:17;5.63;;;1.98;;
20751;SDS011;10536;51.582;5.016;2022-08-20T19:28:24;4.30;;;2.20;;
20751;SDS011;10536;51.582;5.016;2022-08-20T19:33:29;12.77;;;2.97;;
20751;SDS011;10536;51.582;5.016;2022-08-20T19:38:31;4.35;;;2.25;;
20751;SDS011;10536;51.582;5.016;2022-08-20T19:43:31;4.37;;;2.27;;
20751;SDS011;10536;51.582;5.016;2022-08-20T19:48:49;5.30;;;2.35;;
20751;SDS011;10536;51.582;5.016;2022-08-20T19:53:57;5.22;;;2.08;;
20751;SDS011;10536;51.582;5.016;2022-08-20T19:59:04;5.45;;;3.03;;
20751;SDS011;10536;51.582;5.016;2022-08-20T20:04:13;5.65;;;3.35;;
20751;SDS011;10536;51.582;5.016;2022-08-20T20:09:17;4.90;;;2.25;;
20751;SDS011;10536;51.582;5.016;2022-08-20T20:14:24;4.55;;;2.65;;
20751;SDS011;10536;51.582;5.016;2022-08-20T20:19:30;4.32;;;2.33;;
20751;SDS011;10536;51.582;5.016;2022-08-20T20:24:38;7.78;;;3.13;;
20751;SDS011;10536;51.582;5.016;2022-08-20T20:30:04;8.63;;;3.25;;
20751;SDS011;10536;51.582;5.016;2022-08-20T20:35:26;3.45;;;2.40;;
20751;SDS011;10536;51.582;5.016;2022-08-20T20:40:33;4.60;;;2.40;;
20751;SDS011;10536;51.582;5.016;2022-08-20T20:45:43;6.25;;;2.88;;
20751;SDS011;10536;51.582;5.016;2022-08-20T20:50:45;4.82;;;2.85;;
20751;SDS011;10536;51.582;5.016;2022-08-20T20:55:54;3.42;;;2.70;;
20751;SDS011;10536;51.582;5.016;2022-08-20T21:00:55;3.33;;;2.90;;
20751;SDS011;10536;51.582;5.016;2022-08-20T21:06:04;4.70;;;3.20;;
20751;SDS011;10536;51.582;5.016;2022-08-20T21:11:45;4.00;;;3.08;;
20751;SDS011;10536;51.582;5.016;2022-08-20T21:16:45;7.57;;;3.58;;
20751;SDS011;10536;51.582;5.016;2022-08-20T21:21:46;6.03;;;3.35;;
20751;SDS011;10536;51.582;5.016;2022-08-20T21:26:49;5.63;;;3.47;;
20751;SDS011;10536;51.582;5.016;2022-08-20T21:31:50;4.40;;;3.50;;
20751;SDS011;10536;51.582;5.016;2022-08-20T21:36:51;7.70;;;3.78;;
20751;SDS011;10536;51.582;5.016;2022-08-20T21:41:58;4.57;;;3.13;;
20751;SDS011;10536;51.582;5.016;2022-08-20T21:47:01;7.28;;;3.75;;
20751;SDS011;10536;51.582;5.016;2022-08-20T21:52:03;7.32;;;3.20;;
20751;SDS011;10536;51.582;5.016;2022-08-20T21:57:04;8.07;;;2.87;;
20751;SDS011;10536;51.582;5.016;2022-08-20T22:07:12;4.65;;;2.88;;
20751;SDS011;10536;51.582;5.016;2022-08-20T22:12:21;5.53;;;2.65;;
20751;SDS011;10536;51.582;5.016;2022-08-20T22:17:42;5.57;;;2.97;;
20751;SDS011;10536;51.582;5.016;2022-08-20T22:22:45;6.93;;;3.50;;
20751;SDS011;10536;51.582;5.016;2022-08-20T22:27:46;5.47;;;3.10;;
20751;SDS011;10536;51.582;5.016;2022-08-20T22:32:46;5.97;;;3.33;;
20751;SDS011;10536;51.582;5.016;2022-08-20T22:37:50;5.90;;;2.95;;
20751;SDS011;10536;51.582;5.016;2022-08-20T22:42:50;6.38;;;2.58;;
20751;SDS011;10536;51.582;5.016;2022-08-20T22:47:51;4.35;;;2.78;;
20751;SDS011;10536;51.582;5.016;2022-08-20T22:52:52;3.67;;;2.67;;
20751;SDS011;10536;51.582;5.016;2022-08-20T22:57:53;8.30;;;3.28;;
20751;SDS011;10536;51.582;5.016;2022-08-20T23:02:54;5.20;;;2.85;;
20751;SDS011;10536;51.582;5.016;2022-08-20T23:07:56;3.92;;;3.13;;
20751;SDS011;10536;51.582;5.016;2022-08-20T23:12:58;6.88;;;3.70;;
20751;SDS011;10536;51.582;5.016;2022-08-20T23:18:01;5.95;;;3.20;;
20751;SDS011;10536;51.582;5.016;2022-08-20T23:23:05;10.73;;;3.60;;
20751;SDS011;10536;51.582;5.016;2022-08-20T23:28:06;7.53;;;3.22;;
20751;SDS011;10536;51.582;5.016;2022-08-20T23:33:06;11.95;;;4.13;;
20751;SDS011;10536;51.582;5.016;2022-08-20T23:38:07;12.85;;;4.38;;
20751;SDS011;10536;51.582;5.016;2022-08-20T23:43:07;6.53;;;4.50;;
20751;SDS011;10536;51.582;5.016;2022-08-20T23:48:08;10.43;;;4.85;;
20751;SDS011;10536;51.582;5.016;2022-08-20T23:53:09;9.27;;;5.93;;
20751;SDS011;10536;51.582;5.016;2022-08-20T23:58:09;10.73;;;6.18;;
